createdAt,value
2022-08-27T00:02:00.420Z,101637.81
2022-08-27T00:04:02.913Z,101636.13
2022-08-27T00:06:05.269Z,101634.38
2022-08-27T00:08:12.815Z,101635.25
2022-08-27T00:10:27.724Z,101636.13
2022-08-27T00:12:30.477Z,101633.53
2022-08-27T00:14:33.290Z,101632.66
2022-08-27T00:16:35.465Z,101633.56
2022-08-27T00:18:40.227Z,101625.72
2022-08-27T00:20:44.493Z,101621.41
2022-08-27T00:22:46.490Z,101615.31
2022-08-27T00:24:55.732Z,101618.81
2022-08-27T00:26:57.740Z,101617.91
2022-08-27T00:28:59.795Z,101614.47
2022-08-27T00:31:02.432Z,101617.09
2022-08-27T00:33:04.920Z,101616.22
2022-08-27T00:35:08.730Z,101620.66
2022-08-27T00:37:10.907Z,101621.56
2022-08-27T00:39:12.915Z,101614.59
2022-08-27T00:41:17.150Z,101609.41
2022-08-27T00:43:23.868Z,101612.91
2022-08-27T00:45:26.933Z,101615.53
2022-08-27T00:47:33.813Z,101617.22
2022-08-27T00:49:47.073Z,101615.53
2022-08-27T00:52:12.181Z,101610.34
2022-08-27T00:54:18.628Z,101606.81
2022-08-27T00:56:28.423Z,101607.72
2022-08-27T00:58:39.653Z,101610.38
2022-08-27T01:00:41.949Z,101604.31
2022-08-27T01:02:46.807Z,101602.53
2022-08-27T01:05:09.968Z,101600.84
2022-08-27T01:07:14.868Z,101611.28
2022-08-27T01:09:18.599Z,101596.47
2022-08-27T01:11:21.716Z,101607.81
2022-08-27T01:13:40.814Z,101599.97
2022-08-27T01:15:48.896Z,101602.56
2022-08-27T01:17:51.593Z,101607.81
2022-08-27T01:19:58.855Z,101600.84
2022-08-27T01:22:09.700Z,101606.09
2022-08-27T01:24:40.337Z,101607.84
2022-08-27T01:26:42.349Z,101610.47
2022-08-27T01:28:44.950Z,101606.09
2022-08-27T01:30:47.253Z,101615.66
2022-08-27T01:32:50.411Z,101606.97
2022-08-27T01:35:06.752Z,101610.47
2022-08-27T01:37:09.393Z,101601.78
2022-08-27T01:39:12.990Z,101607.88
2022-08-27T01:41:15.239Z,101601.78
2022-08-27T01:43:17.637Z,101607.00
2022-08-27T01:45:25.114Z,101603.53
2022-08-27T01:47:31.452Z,101601.78
2022-08-27T01:49:33.670Z,101600.88
2022-08-27T01:51:35.893Z,101607.03
2022-08-27T01:53:37.894Z,101600.91
2022-08-27T01:55:40.944Z,101604.41
2022-08-27T01:57:49.603Z,101600.94
2022-08-27T01:59:51.600Z,101599.19
2022-08-27T02:01:55.975Z,101600.06
2022-08-27T02:03:58.169Z,101594.84
2022-08-27T02:06:07.433Z,101596.56
2022-08-27T02:08:09.617Z,101595.75
2022-08-27T02:10:15.904Z,101595.72
2022-08-27T02:12:17.838Z,101602.66
2022-08-27T02:14:20.657Z,101596.59
2022-08-27T02:16:22.734Z,101606.16
2022-08-27T02:18:24.864Z,101607.91
2022-08-27T02:20:27.952Z,101608.78
2022-08-27T02:22:31.631Z,101611.41
2022-08-27T02:24:33.694Z,101608.78
2022-08-27T02:26:35.479Z,101609.69
2022-08-27T02:28:37.444Z,101609.69
2022-08-27T02:30:39.350Z,101602.72
2022-08-27T02:32:41.203Z,101610.56
2022-08-27T02:34:43.048Z,101607.94
2022-08-27T02:36:44.924Z,101614.06
2022-08-27T02:38:46.973Z,101607.97
2022-08-27T02:40:48.777Z,101612.31
2022-08-27T02:42:50.964Z,101613.19
2022-08-27T02:44:55.081Z,101607.97
2022-08-27T02:46:59.549Z,101611.47
2022-08-27T02:49:01.386Z,101610.59
2022-08-27T02:51:06.118Z,101611.47
2022-08-27T02:53:09.354Z,101620.13
2022-08-27T02:55:17.167Z,101617.53
2022-08-27T02:57:19.573Z,101620.16
2022-08-27T02:59:22.579Z,101605.34
2022-08-27T03:01:24.625Z,101607.09
2022-08-27T03:03:26.466Z,101604.47
2022-08-27T03:05:28.694Z,101605.34
2022-08-27T03:07:30.644Z,101610.56
2022-08-27T03:09:32.859Z,101610.56
2022-08-27T03:11:34.740Z,101612.31
2022-08-27T03:13:38.264Z,101607.94
2022-08-27T03:15:40.040Z,101604.47
2022-08-27T03:18:01.323Z,101606.22
2022-08-27T03:20:04.743Z,101612.31
2022-08-27T03:22:07.060Z,101611.44
2022-08-27T03:24:11.511Z,101601.84
2022-08-27T03:26:13.747Z,101606.22
2022-08-27T03:28:22.708Z,101602.75
2022-08-27T03:30:25.418Z,101611.44
2022-08-27T03:32:27.799Z,101597.53
2022-08-27T03:34:30.088Z,101601.88
2022-08-27T03:36:32.202Z,101599.28
2022-08-27T03:38:34.573Z,101596.66
2022-08-27T03:40:36.562Z,101593.19
2022-08-27T03:42:39.212Z,101587.06
2022-08-27T03:44:41.122Z,101594.06
2022-08-27T03:46:44.797Z,101591.47
2022-08-27T03:48:47.762Z,101593.19
2022-08-27T03:50:54.097Z,101599.28
2022-08-27T03:52:56.210Z,101598.41
2022-08-27T03:54:59.217Z,101609.72
2022-08-27T03:57:01.095Z,101612.31
2022-08-27T03:59:03.122Z,101612.31
2022-08-27T04:01:06.309Z,101606.22
2022-08-27T04:03:08.622Z,101607.09
2022-08-27T04:05:17.901Z,101606.22
2022-08-27T04:07:20.162Z,101609.72
2022-08-27T04:09:21.978Z,101603.63
2022-08-27T04:11:24.217Z,101608.00
2022-08-27T04:13:26.089Z,101613.22
2022-08-27T04:15:28.029Z,101611.44
2022-08-27T04:17:30.052Z,101612.34
2022-08-27T04:19:34.277Z,101602.75
2022-08-27T04:21:36.777Z,101604.53
2022-08-27T04:23:40.892Z,101620.19
2022-08-27T04:25:44.708Z,101607.13
2022-08-27T04:27:47.254Z,101612.34
2022-08-27T04:29:49.676Z,101611.47
2022-08-27T04:31:53.816Z,101613.22
2022-08-27T04:33:55.848Z,101606.22
2022-08-27T04:36:07.638Z,101608.84
2022-08-27T04:38:09.723Z,101604.50
2022-08-27T04:40:12.222Z,101609.72
2022-08-27T04:42:14.104Z,101612.31
2022-08-27T04:44:16.504Z,101605.34
2022-08-27T04:46:23.625Z,101606.22
2022-08-27T04:48:25.973Z,101608.84
2022-08-27T04:50:27.927Z,101611.44
2022-08-27T04:52:30.088Z,101614.94
2022-08-27T04:54:33.332Z,101611.50
2022-08-27T04:56:36.687Z,101608.88
2022-08-27T04:58:42.831Z,101608.88
2022-08-27T05:00:48.678Z,101614.94
2022-08-27T05:02:50.827Z,101621.94
2022-08-27T05:04:52.686Z,101614.09
2022-08-27T05:06:54.858Z,101621.00
2022-08-27T05:08:57.566Z,101617.53
2022-08-27T05:11:00.630Z,101621.06
2022-08-27T05:13:02.511Z,101624.53
2022-08-27T05:15:14.243Z,101622.78
2022-08-27T05:17:16.045Z,101624.53
2022-08-27T05:19:17.861Z,101619.28
2022-08-27T05:21:24.698Z,101623.63
2022-08-27T05:23:30.319Z,101624.50
2022-08-27T05:25:32.430Z,101629.69
2022-08-27T05:27:34.410Z,101622.75
2022-08-27T05:29:36.345Z,101626.25
2022-08-27T05:31:40.431Z,101627.97
2022-08-27T05:33:43.660Z,101630.59
2022-08-27T05:35:54.439Z,101631.47
2022-08-27T05:37:56.122Z,101633.19
2022-08-27T05:39:57.974Z,101633.19
2022-08-27T05:41:59.832Z,101636.69
2022-08-27T05:44:30.293Z,101643.63
2022-08-27T05:46:31.422Z,101648.00
2022-08-27T05:48:36.061Z,101647.09
2022-08-27T05:50:41.475Z,101647.97
2022-08-27T05:52:43.154Z,101647.09
2022-08-27T05:54:44.938Z,101648.84
2022-08-27T05:56:47.481Z,101645.34
2022-08-27T05:59:08.783Z,101649.72
2022-08-27T06:01:10.931Z,101650.59
2022-08-27T06:03:13.255Z,101648.84
2022-08-27T06:05:15.018Z,101642.75
2022-08-27T06:07:17.351Z,101642.75
2022-08-27T06:09:22.619Z,101640.13
2022-08-27T06:11:24.537Z,101636.69
2022-08-27T06:13:26.231Z,101641.03
2022-08-27T06:15:27.872Z,101644.50
2022-08-27T06:17:29.567Z,101649.72
2022-08-27T06:19:31.323Z,101648.84
2022-08-27T06:21:33.520Z,101652.34
2022-08-27T06:23:36.238Z,101651.47
2022-08-27T06:25:40.853Z,101654.06
2022-08-27T06:27:42.485Z,101654.94
2022-08-27T06:29:44.637Z,101658.41
2022-08-27T06:31:46.325Z,101655.81
2022-08-27T06:33:48.932Z,101657.53
2022-08-27T06:35:50.587Z,101655.81
2022-08-27T06:37:52.241Z,101658.41
2022-08-27T06:39:54.021Z,101660.16
2022-08-27T06:41:55.916Z,101665.38
2022-08-27T06:43:58.475Z,101661.88
2022-08-27T06:46:04.144Z,101663.63
2022-08-27T06:48:07.717Z,101656.69
2022-08-27T06:50:09.645Z,101658.41
2022-08-27T06:52:11.391Z,101663.63
2022-08-27T06:54:14.783Z,101663.66
2022-08-27T06:56:17.476Z,101661.91
2022-08-27T06:58:20.076Z,101664.50
2022-08-27T07:00:21.710Z,101667.13
2022-08-27T07:02:23.425Z,101668.84
2022-08-27T07:04:32.210Z,101668.00
2022-08-27T07:06:36.562Z,101671.47
2022-08-27T07:08:39.660Z,101672.34
2022-08-27T07:10:41.316Z,101680.16
2022-08-27T07:12:43.493Z,101681.91
2022-08-27T07:14:45.177Z,101674.06
2022-08-27T07:16:48.208Z,101682.78
2022-08-27T07:18:52.175Z,101674.94
2022-08-27T07:20:54.708Z,101681.91
2022-08-27T07:22:58.903Z,101686.25
2022-08-27T07:25:00.596Z,101684.50
2022-08-27T07:27:02.495Z,101686.25
2022-08-27T07:29:07.324Z,101687.97
2022-08-27T07:31:11.948Z,101694.13
2022-08-27T07:33:15.039Z,101690.63
2022-08-27T07:35:16.802Z,101691.53
2022-08-27T07:37:18.477Z,101693.25
2022-08-27T07:39:20.134Z,101696.72
2022-08-27T07:41:23.286Z,101701.94
2022-08-27T07:43:50.378Z,101695.88
2022-08-27T07:46:02.061Z,101699.34
2022-08-27T07:48:04.003Z,101697.59
2022-08-27T07:50:06.342Z,101702.84
2022-08-27T07:52:08.025Z,101699.31
2022-08-27T07:54:09.708Z,101691.50
2022-08-27T07:56:12.333Z,101701.94
2022-08-27T07:58:18.103Z,101695.84
2022-08-27T08:00:21.570Z,101699.34
2022-08-27T08:02:23.403Z,101701.94
2022-08-27T08:04:26.692Z,101701.06
2022-08-27T08:06:28.443Z,101706.28
2022-08-27T08:08:30.117Z,101708.88
2022-08-27T08:10:35.379Z,101708.88
2022-08-27T08:12:41.053Z,101713.25
2022-08-27T08:14:42.815Z,101712.38
2022-08-27T08:16:45.209Z,101715.84
2022-08-27T08:18:46.991Z,101706.25
2022-08-27T08:20:57.981Z,101712.34
2022-08-27T08:23:00.520Z,101718.41
2022-08-27T08:25:02.329Z,101715.81
2022-08-27T08:27:07.361Z,101714.94
2022-08-27T08:29:09.510Z,101721.88
2022-08-27T08:31:16.597Z,101724.53
2022-08-27T08:33:18.390Z,101717.56
2022-08-27T08:35:20.844Z,101714.06
2022-08-27T08:37:23.115Z,101721.03
2022-08-27T08:39:24.925Z,101714.91
2022-08-27T08:41:52.424Z,101711.41
2022-08-27T08:43:56.359Z,101715.72
2022-08-27T08:46:07.996Z,101712.25
2022-08-27T08:48:18.054Z,101709.63
2022-08-27T08:50:57.963Z,101716.53
2022-08-27T08:53:10.202Z,101715.69
2022-08-27T08:55:33.624Z,101714.75
2022-08-27T08:57:51.818Z,101718.22
2022-08-27T09:00:09.389Z,101719.94
2022-08-27T09:02:14.617Z,101716.41
2022-08-27T09:04:16.452Z,101710.31
2022-08-27T09:06:32.310Z,101719.00
2022-08-27T09:08:41.172Z,101717.22
2022-08-27T09:11:03.771Z,101715.41
2022-08-27T09:13:20.194Z,101714.47
2022-08-27T09:15:29.749Z,101724.00
2022-08-27T09:17:31.522Z,101722.22
2022-08-27T09:19:35.096Z,101720.41
2022-08-27T09:21:42.440Z,101718.63
2022-08-27T09:24:22.970Z,101714.16
2022-08-27T09:26:28.723Z,101713.16
2022-08-27T09:28:49.413Z,101720.13
2022-08-27T09:30:53.061Z,101724.44
2022-08-27T09:33:01.274Z,101720.03
2022-08-27T09:35:17.147Z,101720.00
2022-08-27T09:37:22.418Z,101716.44
2022-08-27T09:39:49.274Z,101718.16
2022-08-27T09:41:51.989Z,101720.78
2022-08-27T09:44:08.542Z,101710.97
2022-08-27T09:46:24.379Z,101709.97
2022-08-27T09:48:33.781Z,101713.31
2022-08-27T09:50:52.334Z,101714.97
2022-08-27T09:52:59.165Z,101712.25
2022-08-27T09:55:02.934Z,101715.59
2022-08-27T09:57:09.388Z,101708.41
2022-08-27T09:59:25.610Z,101703.81
2022-08-27T10:01:30.686Z,101711.44
2022-08-27T10:03:33.770Z,101703.47
2022-08-27T10:05:44.862Z,101708.59
2022-08-27T10:07:52.687Z,101713.69
2022-08-27T10:10:08.437Z,101707.47
2022-08-27T10:12:28.469Z,101703.09
2022-08-27T10:14:42.583Z,101703.97
2022-08-27T10:16:55.708Z,101699.44
2022-08-27T10:19:16.070Z,101696.69
2022-08-27T10:21:35.530Z,101700.88
2022-08-27T10:23:59.082Z,101694.44
2022-08-27T10:26:34.078Z,101697.88
2022-08-27T10:28:47.959Z,101688.78
2022-08-27T10:31:20.670Z,101693.09
2022-08-27T10:33:37.759Z,101688.66
2022-08-27T10:36:01.184Z,101687.78
2022-08-27T10:38:21.781Z,101686.81
2022-08-27T10:40:32.380Z,101686.59
2022-08-27T10:42:57.577Z,101689.81
2022-08-27T10:45:30.883Z,101678.31
2022-08-27T10:47:48.335Z,101689.75
2022-08-27T10:49:58.718Z,101689.78
2022-08-27T10:52:18.885Z,101681.94
2022-08-27T10:54:38.340Z,101682.13
2022-08-27T10:57:14.488Z,101678.41
2022-08-27T10:59:24.333Z,101679.31
2022-08-27T11:01:26.055Z,101682.53
2022-08-27T11:03:40.697Z,101676.34
2022-08-27T11:05:48.372Z,101680.66
2022-08-27T11:07:56.296Z,101669.41
2022-08-27T11:10:02.243Z,101683.47
2022-08-27T11:12:14.414Z,101688.81
2022-08-27T11:14:28.567Z,101676.78
2022-08-27T11:16:44.759Z,101680.63
2022-08-27T11:19:00.442Z,101684.91
2022-08-27T11:21:25.220Z,101677.06
2022-08-27T11:23:40.644Z,101677.22
2022-08-27T11:25:54.118Z,101679.69
2022-08-27T11:27:58.148Z,101669.00
2022-08-27T11:30:19.473Z,101682.03
2022-08-27T11:32:46.844Z,101675.84
2022-08-27T11:34:51.593Z,101681.19
2022-08-27T11:37:00.239Z,101672.56
2022-08-27T11:39:10.606Z,101674.53
2022-08-27T11:41:45.100Z,101669.09
2022-08-27T11:43:48.028Z,101668.16
2022-08-27T11:46:02.892Z,101668.06
2022-08-27T11:48:23.440Z,101664.31
2022-08-27T11:50:27.419Z,101660.59
2022-08-27T11:52:35.291Z,101662.66
2022-08-27T11:54:50.411Z,101658.59
2022-08-27T11:56:52.360Z,101658.28
2022-08-27T11:58:54.067Z,101661.50
2022-08-27T12:00:59.904Z,101663.28
2022-08-27T12:03:22.540Z,101668.50
2022-08-27T12:05:33.131Z,101663.06
2022-08-27T12:07:36.381Z,101661.84
2022-08-27T12:09:56.218Z,101661.44
2022-08-27T12:12:16.195Z,101658.66
2022-08-27T12:14:36.360Z,101668.44
2022-08-27T12:17:08.508Z,101660.63
2022-08-27T12:19:31.736Z,101647.69
2022-08-27T12:21:49.522Z,101653.22
2022-08-27T12:23:59.886Z,101655.75
2022-08-27T12:26:15.602Z,101657.25
2022-08-27T12:28:26.726Z,101656.72
2022-08-27T12:30:35.596Z,101663.00
2022-08-27T12:32:41.497Z,101655.06
2022-08-27T12:34:54.545Z,101652.63
2022-08-27T12:37:01.975Z,101656.56
2022-08-27T12:39:16.684Z,101653.78
2022-08-27T12:41:44.401Z,101661.22
2022-08-27T12:43:46.545Z,101648.88
2022-08-27T12:46:01.077Z,101648.38
2022-08-27T12:48:09.073Z,101641.97
2022-08-27T12:50:13.307Z,101636.44
2022-08-27T12:52:18.077Z,101644.81
2022-08-27T12:54:28.888Z,101643.31
2022-08-27T12:56:51.436Z,101639.38
2022-08-27T12:59:11.659Z,101637.16
2022-08-27T13:01:44.496Z,101648.19
2022-08-27T13:03:56.069Z,101640.78
2022-08-27T13:06:00.564Z,101642.88
2022-08-27T13:08:03.532Z,101633.72
2022-08-27T13:10:31.378Z,101624.88
2022-08-27T13:12:33.040Z,101628.78
2022-08-27T13:14:42.596Z,101628.31
2022-08-27T13:17:05.796Z,101634.72
2022-08-27T13:19:08.364Z,101622.44
2022-08-27T13:21:33.144Z,101618.06
2022-08-27T13:23:35.505Z,101617.59
2022-08-27T13:25:37.391Z,101619.00
2022-08-27T13:27:39.638Z,101619.69
2022-08-27T13:29:42.822Z,101620.91
2022-08-27T13:31:45.468Z,101618.72
2022-08-27T13:33:47.848Z,101614.81
2022-08-27T13:35:50.992Z,101615.09
2022-08-27T13:37:54.769Z,101611.09
2022-08-27T13:39:57.504Z,101604.69
2022-08-27T13:42:02.704Z,101618.66
2022-08-27T13:44:16.640Z,101610.03
2022-08-27T13:46:22.843Z,101600.66
2022-08-27T13:48:25.146Z,101615.00
2022-08-27T13:50:31.871Z,101603.16
2022-08-27T13:52:58.060Z,101611.25
2022-08-27T13:55:22.693Z,101605.69
2022-08-27T13:57:31.595Z,101614.41
2022-08-27T13:59:33.366Z,101614.63
2022-08-27T14:01:35.261Z,101604.66
2022-08-27T14:03:49.536Z,101605.28
2022-08-27T14:05:51.842Z,101602.28
2022-08-27T14:07:59.912Z,101609.00
2022-08-27T14:10:25.511Z,101604.00
2022-08-27T14:12:32.853Z,101608.91
2022-08-27T14:14:42.278Z,101610.59
2022-08-27T14:16:44.150Z,101614.88
2022-08-27T14:19:03.901Z,101602.81
2022-08-27T14:21:05.773Z,101601.97
2022-08-27T14:23:07.514Z,101613.97
2022-08-27T14:25:21.543Z,101606.16
2022-08-27T14:27:24.431Z,101611.97
2022-08-27T14:29:27.898Z,101603.78
2022-08-27T14:31:29.703Z,101611.31
2022-08-27T14:33:31.507Z,101607.94
2022-08-27T14:35:35.969Z,101608.44
2022-08-27T14:37:42.718Z,101610.16
2022-08-27T14:39:44.971Z,101604.78
2022-08-27T14:41:48.430Z,101608.84
2022-08-27T14:43:52.287Z,101610.78
2022-08-27T14:45:54.463Z,101607.22
2022-08-27T14:48:01.956Z,101606.56
2022-08-27T14:50:05.396Z,101599.16
2022-08-27T14:52:08.694Z,101600.34
2022-08-27T14:54:10.512Z,101595.16
2022-08-27T14:56:12.250Z,101609.84
2022-08-27T14:58:14.847Z,101598.56
2022-08-27T15:00:16.751Z,101604.31
2022-08-27T15:02:21.232Z,101594.94
2022-08-27T15:04:25.162Z,101607.25
2022-08-27T15:06:29.393Z,101610.59
2022-08-27T15:08:32.242Z,101607.09
2022-08-27T15:10:34.142Z,101606.56
2022-08-27T15:12:36.487Z,101596.13
2022-08-27T15:14:39.247Z,101596.75
2022-08-27T15:16:43.366Z,101600.13
2022-08-27T15:18:59.307Z,101593.47
2022-08-27T15:21:03.065Z,101601.31
2022-08-27T15:23:04.853Z,101603.75
2022-08-27T15:25:22.017Z,101600.44
2022-08-27T15:27:32.119Z,101603.81
2022-08-27T15:29:41.011Z,101612.66
2022-08-27T15:31:43.543Z,101612.31
2022-08-27T15:33:45.738Z,101608.22
2022-08-27T15:35:47.403Z,101604.25
2022-08-27T15:37:49.546Z,101609.25
2022-08-27T15:39:51.458Z,101609.66
2022-08-27T15:42:08.624Z,101599.47
2022-08-27T15:44:10.507Z,101605.28
2022-08-27T15:46:14.778Z,101599.06
2022-08-27T15:48:16.514Z,101607.19
2022-08-27T15:50:18.299Z,101604.06
2022-08-27T15:52:21.952Z,101596.47
2022-08-27T15:54:24.223Z,101590.25
2022-08-27T15:56:28.628Z,101591.75
2022-08-27T15:58:32.999Z,101591.22
2022-08-27T16:00:36.162Z,101588.81
2022-08-27T16:02:37.889Z,101596.28
2022-08-27T16:04:39.616Z,101590.03
2022-08-27T16:06:41.372Z,101597.41
2022-08-27T16:08:43.305Z,101596.13
2022-08-27T16:10:45.060Z,101598.91
2022-08-27T16:12:46.804Z,101599.56
2022-08-27T16:14:48.734Z,101597.66
2022-08-27T16:16:50.584Z,101602.28
2022-08-27T16:18:52.536Z,101607.28
2022-08-27T16:20:56.530Z,101608.47
2022-08-27T16:22:58.698Z,101608.22
2022-08-27T16:25:01.293Z,101599.78
2022-08-27T16:27:03.109Z,101604.06
2022-08-27T16:29:06.165Z,101603.56
2022-08-27T16:31:10.422Z,101604.53
2022-08-27T16:33:14.603Z,101604.78
2022-08-27T16:35:18.748Z,101601.94
2022-08-27T16:37:20.828Z,101610.72
2022-08-27T16:39:23.527Z,101611.75
2022-08-27T16:41:25.263Z,101602.78
2022-08-27T16:43:28.168Z,101603.97
2022-08-27T16:45:30.539Z,101603.25
2022-08-27T16:47:32.252Z,101605.53
2022-08-27T16:49:52.526Z,101607.06
2022-08-27T16:51:55.390Z,101605.66
2022-08-27T16:53:57.414Z,101600.78
2022-08-27T16:56:00.291Z,101601.13
2022-08-27T16:58:02.242Z,101606.38
2022-08-27T17:00:06.236Z,101597.41
2022-08-27T17:02:20.017Z,101602.81
2022-08-27T17:04:30.274Z,101603.13
2022-08-27T17:06:33.112Z,101600.38
2022-08-27T17:08:47.609Z,101590.19
2022-08-27T17:10:52.398Z,101593.84
2022-08-27T17:12:54.351Z,101609.13
2022-08-27T17:15:00.481Z,101598.22
2022-08-27T17:17:02.155Z,101607.88
2022-08-27T17:19:05.921Z,101603.34
2022-08-27T17:21:07.785Z,101611.78
2022-08-27T17:23:18.888Z,101611.09
2022-08-27T17:25:20.755Z,101610.44
2022-08-27T17:27:31.042Z,101616.84
2022-08-27T17:29:32.781Z,101624.09
2022-08-27T17:31:37.284Z,101626.06
2022-08-27T17:33:47.820Z,101622.22
2022-08-27T17:35:49.425Z,101627.81
2022-08-27T17:37:51.119Z,101624.31
2022-08-27T17:39:53.371Z,101630.53
2022-08-27T17:41:56.156Z,101634.53
2022-08-27T17:44:01.673Z,101631.31
2022-08-27T17:46:04.163Z,101632.09
2022-08-27T17:48:06.012Z,101638.53
2022-08-27T17:50:16.954Z,101641.41
2022-08-27T17:52:18.726Z,101648.78
2022-08-27T17:54:54.435Z,101640.84
2022-08-27T17:56:56.540Z,101652.47
2022-08-27T17:58:58.333Z,101650.16
2022-08-27T18:01:00.253Z,101647.72
2022-08-27T18:03:04.346Z,101657.59
2022-08-27T18:05:15.351Z,101647.44
2022-08-27T18:07:17.829Z,101652.81
2022-08-27T18:09:19.516Z,101658.19
2022-08-27T18:11:21.781Z,101659.19
2022-08-27T18:13:23.841Z,101662.84
2022-08-27T18:15:28.487Z,101658.63
2022-08-27T18:17:31.204Z,101663.03
2022-08-27T18:19:33.435Z,101675.47
2022-08-27T18:21:46.664Z,101674.59
2022-08-27T18:23:49.034Z,101682.78
2022-08-27T18:25:51.739Z,101680.31
2022-08-27T18:27:57.307Z,101681.19
2022-08-27T18:29:59.457Z,101680.25
2022-08-27T18:32:01.142Z,101685.06
2022-08-27T18:34:03.036Z,101685.09
2022-08-27T18:36:06.683Z,101684.38
2022-08-27T18:38:09.713Z,101688.00
2022-08-27T18:40:14.252Z,101685.38
2022-08-27T18:42:18.004Z,101688.16
2022-08-27T18:44:20.288Z,101697.03
2022-08-27T18:46:23.314Z,101696.94
2022-08-27T18:48:25.504Z,101699.53
2022-08-27T18:50:28.023Z,101699.53
2022-08-27T18:52:30.150Z,101706.03
2022-08-27T18:54:32.420Z,101703.41
2022-08-27T18:56:34.535Z,101712.97
2022-08-27T18:58:39.018Z,101709.56
2022-08-27T19:00:48.622Z,101715.72
2022-08-27T19:02:53.009Z,101718.41
2022-08-27T19:04:55.490Z,101721.97
2022-08-27T19:06:57.443Z,101719.38
2022-08-27T19:08:59.639Z,101729.78
2022-08-27T19:11:02.981Z,101724.47
2022-08-27T19:13:05.139Z,101729.91
2022-08-27T19:15:15.412Z,101733.44
2022-08-27T19:17:28.100Z,101736.16
2022-08-27T19:19:30.183Z,101745.88
2022-08-27T19:21:32.270Z,101745.09
2022-08-27T19:23:35.801Z,101753.19
2022-08-27T19:25:38.002Z,101748.81
2022-08-27T19:27:40.151Z,101747.84
2022-08-27T19:29:42.131Z,101753.13
2022-08-27T19:31:44.318Z,101753.97
2022-08-27T19:33:46.458Z,101758.50
2022-08-27T19:35:48.687Z,101761.09
2022-08-27T19:37:52.981Z,101761.16
2022-08-27T19:39:55.869Z,101762.06
2022-08-27T19:41:58.227Z,101762.09
2022-08-27T19:44:00.696Z,101765.53
2022-08-27T19:46:04.926Z,101763.84
2022-08-27T19:48:09.797Z,101763.91
2022-08-27T19:50:15.720Z,101765.63
2022-08-27T19:52:18.035Z,101776.22
2022-08-27T19:54:21.063Z,101765.75
2022-08-27T19:56:23.269Z,101775.41
2022-08-27T19:58:25.324Z,101775.44
2022-08-27T20:00:27.789Z,101774.63
2022-08-27T20:02:29.917Z,101789.59
2022-08-27T20:04:35.714Z,101776.34
2022-08-27T20:06:41.930Z,101786.00
2022-08-27T20:08:44.082Z,101787.75
2022-08-27T20:10:47.809Z,101790.41
2022-08-27T20:12:50.252Z,101794.84
2022-08-27T20:14:52.336Z,101793.97
2022-08-27T20:16:54.758Z,101792.19
2022-08-27T20:19:00.268Z,101795.72
2022-08-27T20:21:05.811Z,101793.13
2022-08-27T20:23:09.453Z,101795.78
2022-08-27T20:25:16.811Z,101801.84
2022-08-27T20:27:18.795Z,101802.72
2022-08-27T20:29:32.218Z,101799.25
2022-08-27T20:31:35.481Z,101800.97
2022-08-27T20:33:37.679Z,101805.34
2022-08-27T20:35:40.174Z,101804.47
2022-08-27T20:37:42.702Z,101801.84
2022-08-27T20:39:44.961Z,101800.97
2022-08-27T20:41:47.398Z,101806.22
2022-08-27T20:43:50.816Z,101804.47
2022-08-27T20:45:53.082Z,101809.69
2022-08-27T20:47:58.300Z,101810.59
2022-08-27T20:50:03.403Z,101813.19
2022-08-27T20:52:08.609Z,101813.19
2022-08-27T20:54:13.169Z,101815.78
2022-08-27T20:56:15.521Z,101815.78
2022-08-27T20:58:35.956Z,101826.28
2022-08-27T21:00:43.001Z,101817.56
2022-08-27T21:02:47.100Z,101821.91
2022-08-27T21:04:49.221Z,101817.53
2022-08-27T21:06:51.333Z,101821.94
2022-08-27T21:08:53.550Z,101821.03
2022-08-27T21:10:57.239Z,101826.34
2022-08-27T21:13:02.301Z,101827.19
2022-08-27T21:15:14.686Z,101829.81
2022-08-27T21:17:16.797Z,101827.16
2022-08-27T21:19:19.137Z,101836.75
2022-08-27T21:21:21.204Z,101842.88
2022-08-27T21:23:25.578Z,101828.00
2022-08-27T21:25:28.188Z,101832.34
2022-08-27T21:27:30.525Z,101833.22
2022-08-27T21:29:32.389Z,101834.13
2022-08-27T21:31:34.463Z,101841.13
2022-08-27T21:33:39.516Z,101836.72
2022-08-27T21:35:41.896Z,101827.16
2022-08-27T21:37:44.060Z,101839.34
2022-08-27T21:39:46.289Z,101839.31
2022-08-27T21:41:48.565Z,101836.72
2022-08-27T21:43:51.444Z,101835.84
2022-08-27T21:45:56.114Z,101838.50
2022-08-27T21:47:58.145Z,101839.31
2022-08-27T21:49:59.953Z,101842.00
2022-08-27T21:52:03.608Z,101840.25
2022-08-27T21:54:05.374Z,101846.34
2022-08-27T21:56:07.788Z,101842.81
2022-08-27T21:58:09.615Z,101842.81
2022-08-27T22:00:27.946Z,101847.19
2022-08-27T22:02:39.876Z,101852.41
2022-08-27T22:04:42.351Z,101846.31
2022-08-27T22:06:44.125Z,101851.56
2022-08-27T22:08:45.850Z,101855.03
2022-08-27T22:10:52.678Z,101851.56
2022-08-27T22:12:54.453Z,101850.66
2022-08-27T22:15:01.817Z,101855.91
2022-08-27T22:17:04.267Z,101854.22
2022-08-27T22:19:05.970Z,101854.19
2022-08-27T22:21:07.858Z,101862.03
2022-08-27T22:23:12.186Z,101863.75
2022-08-27T22:25:22.552Z,101858.56
2022-08-27T22:27:24.273Z,101859.44
2022-08-27T22:29:26.071Z,101863.78
2022-08-27T22:31:27.850Z,101859.47
2022-08-27T22:33:29.769Z,101866.41
2022-08-27T22:35:32.002Z,101865.56
2022-08-27T22:37:33.711Z,101862.06
2022-08-27T22:39:35.700Z,101867.31
2022-08-27T22:41:37.604Z,101873.38
2022-08-27T22:43:43.666Z,101867.28
2022-08-27T22:45:45.507Z,101869.03
2022-08-27T22:47:47.824Z,101868.19
2022-08-27T22:49:52.718Z,101872.56
2022-08-27T22:51:55.123Z,101866.47
2022-08-27T22:53:56.954Z,101872.56
2022-08-27T22:55:59.789Z,101864.72
2022-08-27T22:58:02.250Z,101864.72
2022-08-27T23:00:14.285Z,101869.97
2022-08-27T23:02:16.328Z,101869.09
2022-08-27T23:04:18.666Z,101869.97
2022-08-27T23:06:21.791Z,101868.25
2022-08-27T23:08:23.696Z,101876.09
2022-08-27T23:10:25.599Z,101872.59
2022-08-27T23:12:27.362Z,101877.81
2022-08-27T23:14:33.368Z,101870.88
2022-08-27T23:16:35.304Z,101874.34
2022-08-27T23:18:39.017Z,101876.97
2022-08-27T23:20:40.926Z,101880.44
2022-08-27T23:22:43.018Z,101886.53
2022-08-27T23:25:07.252Z,101889.16
2022-08-27T23:27:27.469Z,101889.16
2022-08-27T23:29:29.419Z,101890.91
2022-08-27T23:31:31.799Z,101885.69
2022-08-27T23:33:33.557Z,101883.91
2022-08-27T23:35:35.440Z,101883.91
2022-08-27T23:37:37.198Z,101885.69
2022-08-27T23:39:38.989Z,101884.81
2022-08-27T23:41:41.307Z,101887.44
2022-08-27T23:43:43.681Z,101891.78
2022-08-27T23:45:45.512Z,101891.78
2022-08-27T23:47:47.346Z,101893.53
2022-08-27T23:49:49.106Z,101889.13
2022-08-27T23:51:50.816Z,101889.97
2022-08-27T23:53:52.511Z,101889.13
2022-08-27T23:55:54.208Z,101888.25
2022-08-27T23:57:57.876Z,101890.84
2022-08-27T23:59:59.657Z,101883.91
